Home > Products > Valid Products > TAF

000
FTUS45 KGJT 311739
TAFGJT
TAF
KGJT 311739Z 3118/0118 32005KT P6SM -RA FEW008 BKN017 OVC020
     FM312100 33006KT P6SM VCSH SCT025 BKN050
     FM010100 03005KT P6SM SCT050 BKN070
     FM010600 09005KT P6SM VCFG SCT010 SCT070
     FM011400 VRB03KT P6SM SCT070=



000
FTUS45 KGJT 311739
TAFGJT
TAF
KGJT 311739Z 3118/0118 32005KT P6SM -RA FEW008 BKN017 OVC020
     FM312100 33006KT P6SM VCSH SCT025 BKN050
     FM010100 03005KT P6SM SCT050 BKN070
     FM010600 09005KT P6SM VCFG SCT010 SCT070
     FM011400 VRB03KT P6SM SCT070=



000
FTUS45 KGJT 311720 AAH
TAFGJT
TAF AMD
KGJT 311720Z 3117/0112 32005KT P6SM -RA FEW008 BKN017 OVC020
     FM312100 33006KT P6SM VCSH SCT025 BKN050
     FM010100 03005KT P6SM SCT050 BKN070
     FM010600 09005KT P6SM VCFG SCT010 SCT070=



000
FTUS45 KGJT 311720 AAH
TAFGJT
TAF AMD
KGJT 311720Z 3117/0112 32005KT P6SM -RA FEW008 BKN017 OVC020
     FM312100 33006KT P6SM VCSH SCT025 BKN050
     FM010100 03005KT P6SM SCT050 BKN070
     FM010600 09005KT P6SM VCFG SCT010 SCT070=



000
FTUS45 KGJT 311704 AAC
TAFGJT
TAF AMD
KGJT 311704Z 3117/0112 32005KT P6SM VCSH FEW008 SCT012 BKN020
     FM312100 33006KT P6SM VCSH SCT025 BKN050
     FM010100 03005KT P6SM SCT050 BKN070
     FM010600 09005KT P6SM VCFG SCT010 SCT070=



000
FTUS45 KGJT 311704 AAC
TAFGJT
TAF AMD
KGJT 311704Z 3117/0112 32005KT P6SM VCSH FEW008 SCT012 BKN020
     FM312100 33006KT P6SM VCSH SCT025 BKN050
     FM010100 03005KT P6SM SCT050 BKN070
     FM010600 09005KT P6SM VCFG SCT010 SCT070=



000
FTUS45 KGJT 311610 AAE
TAFGJT
TAF AMD
KGJT 311610Z 3116/0112 VRB03KT 6SM -RA BR SCT004 OVC020
      TEMPO 3117/3119 P6SM NSW BKN004 BKN015 OVC025
     FM311900 VRB03KT P6SM VCSH SCT015 BKN040
     FM312100 33006KT P6SM VCSH SCT025 BKN050
     FM010100 03005KT P6SM SCT050 BKN070
     FM010600 09005KT P6SM VCFG SCT010 SCT070=



000
FTUS45 KGJT 311610 AAE
TAFGJT
TAF AMD
KGJT 311610Z 3116/0112 VRB03KT 6SM -RA BR SCT004 OVC020
      TEMPO 3117/3119 P6SM NSW BKN004 BKN015 OVC025
     FM311900 VRB03KT P6SM VCSH SCT015 BKN040
     FM312100 33006KT P6SM VCSH SCT025 BKN050
     FM010100 03005KT P6SM SCT050 BKN070
     FM010600 09005KT P6SM VCFG SCT010 SCT070=



000
FTUS45 KGJT 311438 AAD
TAFGJT
TAF AMD
KGJT 311438Z 3115/0112 VRB03KT 5SM -RA BR SCT004 OVC016
      TEMPO 3115/3117 P6SM NSW BKN004 BKN015 OVC025
     FM311700 VRB03KT P6SM VCSH SCT015 BKN040
     FM312000 33006KT P6SM VCSH SCT025 BKN050
     FM010100 03005KT P6SM SCT050 BKN070
     FM010600 09005KT P6SM VCFG SCT010 SCT070=



000
FTUS45 KGJT 311438 AAD
TAFGJT
TAF AMD
KGJT 311438Z 3115/0112 VRB03KT 5SM -RA BR SCT004 OVC016
      TEMPO 3115/3117 P6SM NSW BKN004 BKN015 OVC025
     FM311700 VRB03KT P6SM VCSH SCT015 BKN040
     FM312000 33006KT P6SM VCSH SCT025 BKN050
     FM010100 03005KT P6SM SCT050 BKN070
     FM010600 09005KT P6SM VCFG SCT010 SCT070=



000
FTUS45 KGJT 311429 AAC
TAFGJT
TAF AMD
KGJT 311429Z 3114/0112 VRB03KT 5SM -RA BR SCT004 OVC015
      TEMPO 3115/3117 P6SM NSW BKN004 BKN015 OVC025
     FM311700 VRB03KT P6SM VCSH SCT015 BKN040
     FM312000 33006KT P6SM VCSH SCT025 BKN050
     FM010100 03005KT P6SM SCT050 BKN070
     FM010600 09005KT P6SM VCFG SCT010 SCT070=



000
FTUS45 KGJT 311429 AAC
TAFGJT
TAF AMD
KGJT 311429Z 3114/0112 VRB03KT 5SM -RA BR SCT004 OVC015
      TEMPO 3115/3117 P6SM NSW BKN004 BKN015 OVC025
     FM311700 VRB03KT P6SM VCSH SCT015 BKN040
     FM312000 33006KT P6SM VCSH SCT025 BKN050
     FM010100 03005KT P6SM SCT050 BKN070
     FM010600 09005KT P6SM VCFG SCT010 SCT070=



000
FTUS45 KGJT 311349 AAB
TAFGJT
TAF AMD
KGJT 311349Z 3114/0112 VRB03KT 4SM -RA BR SCT004 OVC014
      TEMPO 3114/3116 1SM BR BKN004 BKN015 OVC035
     FM311700 VRB03KT P6SM VCSH SCT015 BKN040
     FM312000 33006KT P6SM VCSH SCT025 BKN050
     FM010100 03005KT P6SM SCT050 BKN070
     FM010600 09005KT P6SM VCFG SCT010 SCT070=



000
FTUS45 KGJT 311349 AAB
TAFGJT
TAF AMD
KGJT 311349Z 3114/0112 VRB03KT 4SM -RA BR SCT004 OVC014
      TEMPO 3114/3116 1SM BR BKN004 BKN015 OVC035
     FM311700 VRB03KT P6SM VCSH SCT015 BKN040
     FM312000 33006KT P6SM VCSH SCT025 BKN050
     FM010100 03005KT P6SM SCT050 BKN070
     FM010600 09005KT P6SM VCFG SCT010 SCT070=



000
FTUS45 KGJT 311330 AAB
TAFGJT
TAF AMD
KGJT 311330Z 3114/0112 VRB03KT 1SM -RA BR SCT004 OVC014
      TEMPO 3114/3116 1/2SM FG BKN004 BKN015 OVC035
     FM311700 VRB03KT P6SM VCSH SCT015 BKN040
     FM312000 33006KT P6SM VCSH SCT025 BKN050
     FM010100 03005KT P6SM SCT050 BKN070
     FM010600 09005KT P6SM VCFG SCT010 SCT070=



000
FTUS45 KGJT 311330 AAB
TAFGJT
TAF AMD
KGJT 311330Z 3114/0112 VRB03KT 1SM -RA BR SCT004 OVC014
      TEMPO 3114/3116 1/2SM FG BKN004 BKN015 OVC035
     FM311700 VRB03KT P6SM VCSH SCT015 BKN040
     FM312000 33006KT P6SM VCSH SCT025 BKN050
     FM010100 03005KT P6SM SCT050 BKN070
     FM010600 09005KT P6SM VCFG SCT010 SCT070=



000
FTUS45 KGJT 311138
TAFGJT
TAF
KGJT 311138Z 3112/0112 VRB03KT 1SM -RA BR SCT004 OVC014
      TEMPO 3112/3114 1/2SM FG BKN004
     FM311700 VRB03KT P6SM VCSH SCT015 BKN040
     FM312000 33006KT P6SM VCSH SCT025 BKN050
     FM010100 03005KT P6SM SCT050 BKN070
     FM010600 09005KT P6SM VCFG SCT010 SCT070=



000
FTUS45 KGJT 311138
TAFGJT
TAF
KGJT 311138Z 3112/0112 VRB03KT 1SM -RA BR SCT004 OVC014
      TEMPO 3112/3114 1/2SM FG BKN004
     FM311700 VRB03KT P6SM VCSH SCT015 BKN040
     FM312000 33006KT P6SM VCSH SCT025 BKN050
     FM010100 03005KT P6SM SCT050 BKN070
     FM010600 09005KT P6SM VCFG SCT010 SCT070=



000
FTUS45 KGJT 310805 AAB
TAFGJT
TAF AMD
KGJT 310805Z 3108/0106 05004KT 3SM -RA BR BKN008 OVC035
      TEMPO 3108/3111 1/2SM -RA FG OVC007
     FM311100 09003KT 1 1/2SM -RASN BR SCT006 OVC010
     FM311900 32005KT 5SM -RA BR OVC015
     FM312300 33006KT P6SM VCSH SCT025 BKN050
     FM010100 03005KT P6SM SCT050 BKN070=



000
FTUS45 KGJT 310805 AAB
TAFGJT
TAF AMD
KGJT 310805Z 3108/0106 05004KT 3SM -RA BR BKN008 OVC035
      TEMPO 3108/3111 1/2SM -RA FG OVC007
     FM311100 09003KT 1 1/2SM -RASN BR SCT006 OVC010
     FM311900 32005KT 5SM -RA BR OVC015
     FM312300 33006KT P6SM VCSH SCT025 BKN050
     FM010100 03005KT P6SM SCT050 BKN070=



000
FTUS45 KGJT 310538
TAFGJT
TAF
KGJT 310538Z 3106/0106 05004KT P6SM -RA SCT007 OVC030
      TEMPO 3106/3109 3SM -RA BR OVC007
     FM310900 09003KT 1 1/2SM -RASN BR SCT006 OVC010
     FM311900 32005KT 5SM -RA BR OVC015
     FM312300 33006KT P6SM VCSH SCT025 BKN050
     FM010100 03005KT P6SM SCT050 BKN070=



000
FTUS45 KGJT 310322 AAB
TAFGJT
TAF AMD
KGJT 310322Z 3103/3124 05004KT 6SM -RA BR OVC040
     FM310500 VRB03KT 3SM -RA BR OVC025
     FM310900 09003KT 1 1/2SM -RASN BR SCT006 OVC010
     FM311900 32005KT 3SM -RA BR OVC015=



000
FTUS45 KGJT 310322 AAB
TAFGJT
TAF AMD
KGJT 310322Z 3103/3124 05004KT 6SM -RA BR OVC040
     FM310500 VRB03KT 3SM -RA BR OVC025
     FM310900 09003KT 1 1/2SM -RASN BR SCT006 OVC010
     FM311900 32005KT 3SM -RA BR OVC015=



000
FTUS45 KGJT 302326
TAFGJT
TAF
KGJT 302326Z 3100/3124 16006KT P6SM -RA OVC050
     FM310100 05004KT 4SM -RA BR OVC015
      TEMPO 3103/3107 2SM -RA BR
     FM310700 VRB03KT 2SM -RA BR OVC015
     FM310900 09003KT 1 1/2SM -RASN BR SCT006 OVC010
     FM311900 32005KT 3SM -RA BR OVC015=



000
FTUS45 KGJT 302326
TAFGJT
TAF
KGJT 302326Z 3100/3124 16006KT P6SM -RA OVC050
     FM310100 05004KT 4SM -RA BR OVC015
      TEMPO 3103/3107 2SM -RA BR
     FM310700 VRB03KT 2SM -RA BR OVC015
     FM310900 09003KT 1 1/2SM -RASN BR SCT006 OVC010
     FM311900 32005KT 3SM -RA BR OVC015=



000
FTUS45 KGJT 302202 AAB
TAFGJT
TAF AMD
KGJT 302202Z 3022/3118 16006KT P6SM -RA OVC050
     FM310100 05004KT 4SM -RA BR OVC015
      TEMPO 3103/3107 2SM -RA BR
     FM310700 VRB03KT 2SM -RA BR OVC015
     FM310900 09003KT 1 1/2SM -RASN BR SCT006 OVC015=



000
FTUS45 KGJT 302202 AAB
TAFGJT
TAF AMD
KGJT 302202Z 3022/3118 16006KT P6SM -RA OVC050
     FM310100 05004KT 4SM -RA BR OVC015
      TEMPO 3103/3107 2SM -RA BR
     FM310700 VRB03KT 2SM -RA BR OVC015
     FM310900 09003KT 1 1/2SM -RASN BR SCT006 OVC015=



000
FTUS45 KGJT 302125 AAC
TAFGJT
TAF AMD
KGJT 302125Z 3021/3118 18007KT P6SM VCSH BKN045 OVC060
     FM310100 05004KT 4SM -RA BR OVC015
      TEMPO 3103/3107 2SM -RA BR
     FM310700 VRB03KT 2SM -RA BR OVC015
     FM310900 09003KT 1 1/2SM -RASN BR SCT006 OVC015=



000
FTUS45 KGJT 302125 AAC
TAFGJT
TAF AMD
KGJT 302125Z 3021/3118 18007KT P6SM VCSH BKN045 OVC060
     FM310100 05004KT 4SM -RA BR OVC015
      TEMPO 3103/3107 2SM -RA BR
     FM310700 VRB03KT 2SM -RA BR OVC015
     FM310900 09003KT 1 1/2SM -RASN BR SCT006 OVC015=



000
FTUS45 KGJT 301739
TAFGJT
TAF
KGJT 301739Z 3018/3118 11005KT P6SM VCSH OVC090
     FM310100 05004KT 4SM -RA BR OVC015
      TEMPO 3103/3107 2SM -RA BR
     FM310700 VRB03KT 2SM -RA BR OVC015
     FM310900 09003KT 1 1/2SM -RASN BR SCT006 OVC015=



000
FTUS45 KGJT 301739
TAFGJT
TAF
KGJT 301739Z 3018/3118 11005KT P6SM VCSH OVC090
     FM310100 05004KT 4SM -RA BR OVC015
      TEMPO 3103/3107 2SM -RA BR
     FM310700 VRB03KT 2SM -RA BR OVC015
     FM310900 09003KT 1 1/2SM -RASN BR SCT006 OVC015=



000
FTUS45 KGJT 301133
TAFGJT
TAF
KGJT 301133Z 3012/3112 VRB03KT P6SM VCSH SCT045 OVC060
     FM301400 15005KT P6SM VCSH BKN050
      TEMPO 3014/3018 -SHRA SCT030 OVC045
     FM310100 05004KT 4SM -RA BR OVC015=



000
FTUS45 KGJT 301133
TAFGJT
TAF
KGJT 301133Z 3012/3112 VRB03KT P6SM VCSH SCT045 OVC060
     FM301400 15005KT P6SM VCSH BKN050
      TEMPO 3014/3018 -SHRA SCT030 OVC045
     FM310100 05004KT 4SM -RA BR OVC015=



000
FTUS45 KGJT 300531
TAFGJT
TAF
KGJT 300531Z 3006/3106 10004KT P6SM VCSH SCT045 BKN050 OVC070
      TEMPO 3006/3010 -RA BKN035
     FM301700 15005KT P6SM VCSH BKN050
     FM301800 15004KT 5SM -RA BR OVC015
     FM310000 05004KT 4SM -RA BR OVC015=



000
FTUS45 KGJT 300531
TAFGJT
TAF
KGJT 300531Z 3006/3106 10004KT P6SM VCSH SCT045 BKN050 OVC070
      TEMPO 3006/3010 -RA BKN035
     FM301700 15005KT P6SM VCSH BKN050
     FM301800 15004KT 5SM -RA BR OVC015
     FM310000 05004KT 4SM -RA BR OVC015=



000
FTUS45 KGJT 292333
TAFGJT
TAF
KGJT 292333Z 3000/3024 16004KT P6SM SCT100 OVC150
     FM300100 09004KT P6SM SCT070 OVC110
     FM300700 11005KT P6SM VCSH BKN070 OVC100
     FM301500 13005KT P6SM BKN050
     FM301800 15004KT 3SM -RA BR OVC015=



000
FTUS45 KGJT 292333
TAFGJT
TAF
KGJT 292333Z 3000/3024 16004KT P6SM SCT100 OVC150
     FM300100 09004KT P6SM SCT070 OVC110
     FM300700 11005KT P6SM VCSH BKN070 OVC100
     FM301500 13005KT P6SM BKN050
     FM301800 15004KT 3SM -RA BR OVC015=



000
FTUS45 KGJT 291720
TAFGJT
TAF
KGJT 291720Z 2918/3018 12008KT P6SM BKN250
     FM292100 35004KT P6SM SCT100 BKN150
     FM300100 09004KT P6SM SCT070 OVC110
     FM300700 11005KT P6SM VCSH BKN070 OVC100=



000
FTUS45 KGJT 291720
TAFGJT
TAF
KGJT 291720Z 2918/3018 12008KT P6SM BKN250
     FM292100 35004KT P6SM SCT100 BKN150
     FM300100 09004KT P6SM SCT070 OVC110
     FM300700 11005KT P6SM VCSH BKN070 OVC100=



000
FTUS45 KGJT 291132
TAFGJT
TAF
KGJT 291132Z 2912/3012 12005KT P6SM FEW070 BKN200
     FM292100 35004KT P6SM SCT070 BKN150
     FM300100 09004KT P6SM BKN070 OVC110=



000
FTUS45 KGJT 291132
TAFGJT
TAF
KGJT 291132Z 2912/3012 12005KT P6SM FEW070 BKN200
     FM292100 35004KT P6SM SCT070 BKN150
     FM300100 09004KT P6SM BKN070 OVC110=



000
FTUS45 KGJT 290535
TAFGJT
TAF
KGJT 290535Z 2906/3006 09003KT P6SM BKN090
     FM291200 11005KT P6SM SCT090 BKN200
     FM292000 35004KT P6SM BKN200
     FM300100 09004KT P6SM SCT090 BKN120=



000
FTUS45 KGJT 290535
TAFGJT
TAF
KGJT 290535Z 2906/3006 09003KT P6SM BKN090
     FM291200 11005KT P6SM SCT090 BKN200
     FM292000 35004KT P6SM BKN200
     FM300100 09004KT P6SM SCT090 BKN120=



000
FTUS45 KGJT 282325
TAFGJT
TAF
KGJT 282325Z 2900/2924 34006KT P6SM BKN090
     FM290400 33006KT P6SM SCT090 SCT200
     FM291200 11005KT P6SM BKN200
     FM291800 10004KT P6SM BKN250=



000
FTUS45 KGJT 282325
TAFGJT
TAF
KGJT 282325Z 2900/2924 34006KT P6SM BKN090
     FM290400 33006KT P6SM SCT090 SCT200
     FM291200 11005KT P6SM BKN200
     FM291800 10004KT P6SM BKN250=



    US Dept of Commerce
    National Oceanic and Atmospheric Administration
    National Weather Service
    1325 East West Highway
    Silver Spring, MD 20910
    Page Author: NWS Internet Services Team
Disclaimer
Information Quality
Credits
Glossary
Privacy Policy
Freedom of Information Act (FOIA)
About Us
Career Opportunities